Saegertown, Pennsylvania
Current Conditions -  °F | °C
As of 7:53 AM on Sunday 21 Dec 2014 (Local Time) from KGKJ Reporting Station
Haze Haze  
Wind Chill: 27°   Ceiling: 2000
Heat Index: 27°   Visibility: 6mi
Dew Point: 22°   Wind: 3mph
Humidity: 81%   Direction: 200°SSW
Pressure: 30.27"   Gusts: NA
Location:  41.72°N, 80.15°W
Report Text: KGKJ 211253Z AUTO 20003KT 6SM HZ OVC020 M03/M06 A3027 RMK AO2 SLP268 T10281056 TSNO $
Loading
Personal Weather Stations






























Interactive Weather Map New forecast layout! Learn more

10-Day Weather Forecast

Advertisements
Track Severe Weather on mobile